sensor_id;sensor_type;location;lat;lon;timestamp;temperature;humidity
52209;DHT22;38507;53.132;6.394;2022-08-01T00:01:46;18.00;99.90
52209;DHT22;38507;53.132;6.394;2022-08-01T00:04:12;18.00;99.90
52209;DHT22;38507;53.132;6.394;2022-08-01T00:06:37;18.00;99.90
52209;DHT22;38507;53.132;6.394;2022-08-01T00:09:03;18.00;99.90
52209;DHT22;38507;53.132;6.394;2022-08-01T00:11:29;18.00;99.90
52209;DHT22;38507;53.132;6.394;2022-08-01T00:13:54;18.00;99.90
52209;DHT22;38507;53.132;6.394;2022-08-01T00:16:20;18.00;99.90
52209;DHT22;38507;53.132;6.394;2022-08-01T00:18:49;18.00;99.90
52209;DHT22;38507;53.132;6.394;2022-08-01T00:21:15;18.00;99.90
52209;DHT22;38507;53.132;6.394;2022-08-01T00:23:41;18.00;99.90
52209;DHT22;38507;53.132;6.394;2022-08-01T00:26:07;18.00;99.90
52209;DHT22;38507;53.132;6.394;2022-08-01T00:28:33;18.00;99.90
52209;DHT22;38507;53.132;6.394;2022-08-01T00:30:58;18.00;99.90
52209;DHT22;38507;53.132;6.394;2022-08-01T00:33:24;18.00;99.90
52209;DHT22;38507;53.132;6.394;2022-08-01T00:35:50;18.00;99.90
52209;DHT22;38507;53.132;6.394;2022-08-01T00:38:15;17.90;99.90
52209;DHT22;38507;53.132;6.394;2022-08-01T00:40:41;18.00;99.90
52209;DHT22;38507;53.132;6.394;2022-08-01T00:43:07;18.00;99.90
52209;DHT22;38507;53.132;6.394;2022-08-01T00:45:32;18.00;99.90
52209;DHT22;38507;53.132;6.394;2022-08-01T00:47:58;17.90;99.90
52209;DHT22;38507;53.132;6.394;2022-08-01T00:50:24;18.20;99.90
52209;DHT22;38507;53.132;6.394;2022-08-01T00:52:50;17.90;99.90
52209;DHT22;38507;53.132;6.394;2022-08-01T00:55:18;18.00;99.90
52209;DHT22;38507;53.132;6.394;2022-08-01T00:57:44;18.00;99.90
52209;DHT22;38507;53.132;6.394;2022-08-01T01:00:10;17.90;99.90
52209;DHT22;38507;53.132;6.394;2022-08-01T01:02:36;17.90;99.90
52209;DHT22;38507;53.132;6.394;2022-08-01T01:05:02;18.00;99.90
52209;DHT22;38507;53.132;6.394;2022-08-01T01:07:35;17.90;99.90
52209;DHT22;38507;53.132;6.394;2022-08-01T01:10:04;17.90;99.90
52209;DHT22;38507;53.132;6.394;2022-08-01T01:12:50;17.90;99.90
52209;DHT22;38507;53.132;6.394;2022-08-01T01:18:11;17.90;99.90
52209;DHT22;38507;53.132;6.394;2022-08-01T01:20:40;17.80;99.90
52209;DHT22;38507;53.132;6.394;2022-08-01T01:23:48;17.90;99.90
52209;DHT22;38507;53.132;6.394;2022-08-01T01:31:56;17.90;99.90
52209;DHT22;38507;53.132;6.394;2022-08-01T01:34:23;18.00;99.90
52209;DHT22;38507;53.132;6.394;2022-08-01T01:36:52;17.90;99.90
52209;DHT22;38507;53.132;6.394;2022-08-01T01:39:20;17.80;99.90
52209;DHT22;38507;53.132;6.394;2022-08-01T01:41:46;17.90;99.90
52209;DHT22;38507;53.132;6.394;2022-08-01T01:44:15;17.80;99.90
52209;DHT22;38507;53.132;6.394;2022-08-01T01:46:41;18.00;99.90
52209;DHT22;38507;53.132;6.394;2022-08-01T01:49:08;17.70;99.90
52209;DHT22;38507;53.132;6.394;2022-08-01T01:51:38;17.80;99.90
52209;DHT22;38507;53.132;6.394;2022-08-01T01:54:06;17.80;99.90
52209;DHT22;38507;53.132;6.394;2022-08-01T01:56:33;17.80;99.90
52209;DHT22;38507;53.132;6.394;2022-08-01T01:59:01;17.80;99.90
52209;DHT22;38507;53.132;6.394;2022-08-01T02:01:32;17.70;99.90
52209;DHT22;38507;53.132;6.394;2022-08-01T02:04:00;17.70;99.90
52209;DHT22;38507;53.132;6.394;2022-08-01T02:06:28;17.70;99.90
52209;DHT22;38507;53.132;6.394;2022-08-01T02:08:55;17.60;99.90
52209;DHT22;38507;53.132;6.394;2022-08-01T02:11:22;17.60;99.90
52209;DHT22;38507;53.132;6.394;2022-08-01T02:13:54;17.60;99.90
52209;DHT22;38507;53.132;6.394;2022-08-01T02:16:24;17.60;99.90
52209;DHT22;38507;53.132;6.394;2022-08-01T02:18:50;17.60;99.90
52209;DHT22;38507;53.132;6.394;2022-08-01T02:21:25;17.60;99.90
52209;DHT22;38507;53.132;6.394;2022-08-01T02:23:52;17.60;99.90
52209;DHT22;38507;53.132;6.394;2022-08-01T02:26:19;17.50;99.90
52209;DHT22;38507;53.132;6.394;2022-08-01T02:28:53;17.60;99.90
52209;DHT22;38507;53.132;6.394;2022-08-01T02:31:22;17.60;99.90
52209;DHT22;38507;53.132;6.394;2022-08-01T02:34:04;17.50;99.90
52209;DHT22;38507;53.132;6.394;2022-08-01T02:36:33;17.40;99.90
52209;DHT22;38507;53.132;6.394;2022-08-01T02:39:08;17.40;99.90
52209;DHT22;38507;53.132;6.394;2022-08-01T02:41:36;17.40;99.90
52209;DHT22;38507;53.132;6.394;2022-08-01T02:44:05;17.40;99.90
52209;DHT22;38507;53.132;6.394;2022-08-01T02:46:36;17.30;99.90
52209;DHT22;38507;53.132;6.394;2022-08-01T02:49:04;17.30;99.90
52209;DHT22;38507;53.132;6.394;2022-08-01T02:51:31;17.30;99.90
52209;DHT22;38507;53.132;6.394;2022-08-01T02:53:59;17.30;99.90
52209;DHT22;38507;53.132;6.394;2022-08-01T02:56:27;17.20;99.90
52209;DHT22;38507;53.132;6.394;2022-08-01T02:59:02;17.20;99.90
52209;DHT22;38507;53.132;6.394;2022-08-01T03:01:29;17.20;99.90
52209;DHT22;38507;53.132;6.394;2022-08-01T03:03:55;17.10;99.90
52209;DHT22;38507;53.132;6.394;2022-08-01T03:06:22;17.10;99.90
52209;DHT22;38507;53.132;6.394;2022-08-01T03:08:49;17.40;99.90
52209;DHT22;38507;53.132;6.394;2022-08-01T03:11:15;17.10;99.90
52209;DHT22;38507;53.132;6.394;2022-08-01T03:13:43;17.10;99.90
52209;DHT22;38507;53.132;6.394;2022-08-01T03:16:11;17.10;99.90
52209;DHT22;38507;53.132;6.394;2022-08-01T03:18:39;17.10;99.90
52209;DHT22;38507;53.132;6.394;2022-08-01T03:21:06;17.10;99.90
52209;DHT22;38507;53.132;6.394;2022-08-01T03:23:35;17.00;99.90
52209;DHT22;38507;53.132;6.394;2022-08-01T03:26:01;17.00;99.90
52209;DHT22;38507;53.132;6.394;2022-08-01T03:28:27;17.00;99.90
52209;DHT22;38507;53.132;6.394;2022-08-01T03:30:55;17.10;99.90
52209;DHT22;38507;53.132;6.394;2022-08-01T03:33:21;17.00;99.90
52209;DHT22;38507;53.132;6.394;2022-08-01T03:35:49;17.00;99.90
52209;DHT22;38507;53.132;6.394;2022-08-01T03:38:22;16.90;99.90
52209;DHT22;38507;53.132;6.394;2022-08-01T03:40:53;17.00;99.90
52209;DHT22;38507;53.132;6.394;2022-08-01T03:43:26;16.90;99.90
52209;DHT22;38507;53.132;6.394;2022-08-01T03:45:53;17.00;99.90
52209;DHT22;38507;53.132;6.394;2022-08-01T03:48:28;16.90;99.90
52209;DHT22;38507;53.132;6.394;2022-08-01T03:50:54;17.00;99.90
52209;DHT22;38507;53.132;6.394;2022-08-01T03:53:23;17.00;99.90
52209;DHT22;38507;53.132;6.394;2022-08-01T03:55:50;16.90;99.90
52209;DHT22;38507;53.132;6.394;2022-08-01T03:58:18;16.80;99.90
52209;DHT22;38507;53.132;6.394;2022-08-01T04:00:44;16.80;99.90
52209;DHT22;38507;53.132;6.394;2022-08-01T04:03:11;16.80;99.90
52209;DHT22;38507;53.132;6.394;2022-08-01T04:05:37;16.80;99.90
52209;DHT22;38507;53.132;6.394;2022-08-01T04:08:05;16.90;99.90
52209;DHT22;38507;53.132;6.394;2022-08-01T04:10:31;16.80;99.90
52209;DHT22;38507;53.132;6.394;2022-08-01T04:12:57;17.00;99.90
52209;DHT22;38507;53.132;6.394;2022-08-01T04:15:22;16.90;99.90
52209;DHT22;38507;53.132;6.394;2022-08-01T04:17:49;16.70;99.90
52209;DHT22;38507;53.132;6.394;2022-08-01T04:20:15;16.70;99.90
52209;DHT22;38507;53.132;6.394;2022-08-01T04:22:41;16.70;99.90
52209;DHT22;38507;53.132;6.394;2022-08-01T04:25:11;16.70;99.90
52209;DHT22;38507;53.132;6.394;2022-08-01T04:27:40;16.60;99.90
52209;DHT22;38507;53.132;6.394;2022-08-01T04:30:08;16.70;99.90
52209;DHT22;38507;53.132;6.394;2022-08-01T04:32:37;16.60;99.90
52209;DHT22;38507;53.132;6.394;2022-08-01T04:35:07;16.60;99.90
52209;DHT22;38507;53.132;6.394;2022-08-01T04:37:36;16.60;99.90
52209;DHT22;38507;53.132;6.394;2022-08-01T04:40:04;16.80;99.90
52209;DHT22;38507;53.132;6.394;2022-08-01T04:42:32;16.50;99.90
52209;DHT22;38507;53.132;6.394;2022-08-01T04:44:58;16.50;99.90
52209;DHT22;38507;53.132;6.394;2022-08-01T04:47:25;16.60;99.90
52209;DHT22;38507;53.132;6.394;2022-08-01T04:49:52;16.50;99.90
52209;DHT22;38507;53.132;6.394;2022-08-01T04:52:18;16.50;99.90
52209;DHT22;38507;53.132;6.394;2022-08-01T04:54:43;16.50;99.90
52209;DHT22;38507;53.132;6.394;2022-08-01T04:57:09;16.50;99.90
52209;DHT22;38507;53.132;6.394;2022-08-01T04:59:37;16.70;99.90
52209;DHT22;38507;53.132;6.394;2022-08-01T05:02:10;16.50;99.90
52209;DHT22;38507;53.132;6.394;2022-08-01T05:04:38;16.60;99.90
52209;DHT22;38507;53.132;6.394;2022-08-01T05:07:04;16.50;99.90
52209;DHT22;38507;53.132;6.394;2022-08-01T05:09:30;16.50;99.90
52209;DHT22;38507;53.132;6.394;2022-08-01T05:11:57;16.50;99.90
52209;DHT22;38507;53.132;6.394;2022-08-01T05:14:25;16.50;99.90
52209;DHT22;38507;53.132;6.394;2022-08-01T05:16:51;16.40;99.90
52209;DHT22;38507;53.132;6.394;2022-08-01T05:19:17;16.50;99.90
52209;DHT22;38507;53.132;6.394;2022-08-01T05:21:42;16.50;99.90
52209;DHT22;38507;53.132;6.394;2022-08-01T05:24:08;16.60;99.90
52209;DHT22;38507;53.132;6.394;2022-08-01T05:26:34;16.40;99.90
52209;DHT22;38507;53.132;6.394;2022-08-01T05:29:00;16.40;99.90
52209;DHT22;38507;53.132;6.394;2022-08-01T05:31:26;16.40;99.90
52209;DHT22;38507;53.132;6.394;2022-08-01T05:33:52;16.50;99.90
52209;DHT22;38507;53.132;6.394;2022-08-01T05:36:17;16.40;99.90
52209;DHT22;38507;53.132;6.394;2022-08-01T05:38:43;16.40;99.90
52209;DHT22;38507;53.132;6.394;2022-08-01T05:41:10;16.40;99.90
52209;DHT22;38507;53.132;6.394;2022-08-01T05:43:35;16.40;99.90
52209;DHT22;38507;53.132;6.394;2022-08-01T05:46:01;16.40;99.90
52209;DHT22;38507;53.132;6.394;2022-08-01T05:48:27;16.40;99.90
52209;DHT22;38507;53.132;6.394;2022-08-01T05:50:53;16.40;99.90
52209;DHT22;38507;53.132;6.394;2022-08-01T05:53:19;16.40;99.90
52209;DHT22;38507;53.132;6.394;2022-08-01T05:55:45;16.40;99.90
52209;DHT22;38507;53.132;6.394;2022-08-01T05:58:10;16.40;99.90
52209;DHT22;38507;53.132;6.394;2022-08-01T06:00:36;16.40;99.90
52209;DHT22;38507;53.132;6.394;2022-08-01T06:03:02;16.30;99.90
52209;DHT22;38507;53.132;6.394;2022-08-01T06:05:27;16.40;99.90
52209;DHT22;38507;53.132;6.394;2022-08-01T06:07:53;16.50;99.90
52209;DHT22;38507;53.132;6.394;2022-08-01T06:10:19;16.50;99.90
52209;DHT22;38507;53.132;6.394;2022-08-01T06:12:45;16.40;99.90
52209;DHT22;38507;53.132;6.394;2022-08-01T06:15:11;16.40;99.90
52209;DHT22;38507;53.132;6.394;2022-08-01T06:17:36;16.50;99.90
52209;DHT22;38507;53.132;6.394;2022-08-01T06:20:03;16.60;99.90
52209;DHT22;38507;53.132;6.394;2022-08-01T06:22:29;16.40;99.90
52209;DHT22;38507;53.132;6.394;2022-08-01T06:24:54;16.50;99.90
52209;DHT22;38507;53.132;6.394;2022-08-01T06:27:20;16.70;99.90
52209;DHT22;38507;53.132;6.394;2022-08-01T06:29:46;16.50;99.90
52209;DHT22;38507;53.132;6.394;2022-08-01T06:32:12;16.60;99.90
52209;DHT22;38507;53.132;6.394;2022-08-01T06:34:37;16.60;99.90
52209;DHT22;38507;53.132;6.394;2022-08-01T06:37:03;16.50;99.90
52209;DHT22;38507;53.132;6.394;2022-08-01T06:39:29;16.60;99.90
52209;DHT22;38507;53.132;6.394;2022-08-01T06:41:54;16.60;99.90
52209;DHT22;38507;53.132;6.394;2022-08-01T06:44:20;16.60;99.90
52209;DHT22;38507;53.132;6.394;2022-08-01T06:46:45;16.70;99.90
52209;DHT22;38507;53.132;6.394;2022-08-01T06:49:11;16.70;99.90
52209;DHT22;38507;53.132;6.394;2022-08-01T06:51:37;16.80;99.90
52209;DHT22;38507;53.132;6.394;2022-08-01T06:54:02;16.80;99.90
52209;DHT22;38507;53.132;6.394;2022-08-01T06:56:28;16.80;99.90
52209;DHT22;38507;53.132;6.394;2022-08-01T06:58:54;16.90;99.90
52209;DHT22;38507;53.132;6.394;2022-08-01T07:01:29;16.90;99.90
52209;DHT22;38507;53.132;6.394;2022-08-01T07:03:55;17.00;99.90
52209;DHT22;38507;53.132;6.394;2022-08-01T07:06:22;17.00;99.90
52209;DHT22;38507;53.132;6.394;2022-08-01T07:08:48;17.10;99.90
52209;DHT22;38507;53.132;6.394;2022-08-01T07:11:13;17.10;99.90
52209;DHT22;38507;53.132;6.394;2022-08-01T07:13:39;17.20;99.90
52209;DHT22;38507;53.132;6.394;2022-08-01T07:16:05;17.20;99.90
52209;DHT22;38507;53.132;6.394;2022-08-01T07:18:30;17.60;99.90
52209;DHT22;38507;53.132;6.394;2022-08-01T07:20:56;17.30;99.90
52209;DHT22;38507;53.132;6.394;2022-08-01T07:23:21;17.50;99.90
52209;DHT22;38507;53.132;6.394;2022-08-01T07:25:47;17.40;99.90
52209;DHT22;38507;53.132;6.394;2022-08-01T07:28:14;17.40;99.90
52209;DHT22;38507;53.132;6.394;2022-08-01T07:30:40;17.50;99.90
52209;DHT22;38507;53.132;6.394;2022-08-01T07:33:08;17.70;99.90
52209;DHT22;38507;53.132;6.394;2022-08-01T07:35:33;17.80;99.90
52209;DHT22;38507;53.132;6.394;2022-08-01T07:37:59;17.80;99.90
52209;DHT22;38507;53.132;6.394;2022-08-01T07:40:25;17.80;99.90
52209;DHT22;38507;53.132;6.394;2022-08-01T07:42:51;17.90;99.90
52209;DHT22;38507;53.132;6.394;2022-08-01T07:45:16;18.10;99.90
52209;DHT22;38507;53.132;6.394;2022-08-01T07:47:42;18.00;99.90
52209;DHT22;38507;53.132;6.394;2022-08-01T07:50:11;18.30;99.90
52209;DHT22;38507;53.132;6.394;2022-08-01T07:52:38;18.30;99.90
52209;DHT22;38507;53.132;6.394;2022-08-01T07:55:04;18.40;99.90
52209;DHT22;38507;53.132;6.394;2022-08-01T07:57:30;18.60;99.90
52209;DHT22;38507;53.132;6.394;2022-08-01T07:59:58;18.90;99.90
52209;DHT22;38507;53.132;6.394;2022-08-01T08:02:23;18.80;99.90
52209;DHT22;38507;53.132;6.394;2022-08-01T08:04:49;19.00;99.90
52209;DHT22;38507;53.132;6.394;2022-08-01T08:07:15;18.90;99.90
52209;DHT22;38507;53.132;6.394;2022-08-01T08:09:41;19.10;99.90
52209;DHT22;38507;53.132;6.394;2022-08-01T08:12:07;19.20;99.90
52209;DHT22;38507;53.132;6.394;2022-08-01T08:14:32;19.30;99.90
52209;DHT22;38507;53.132;6.394;2022-08-01T08:17:02;19.70;99.90
52209;DHT22;38507;53.132;6.394;2022-08-01T08:19:28;19.60;99.90
52209;DHT22;38507;53.132;6.394;2022-08-01T08:21:54;19.90;99.90
52209;DHT22;38507;53.132;6.394;2022-08-01T08:24:20;20.10;99.90
52209;DHT22;38507;53.132;6.394;2022-08-01T08:26:51;20.10;99.90
52209;DHT22;38507;53.132;6.394;2022-08-01T08:29:20;20.40;99.90
52209;DHT22;38507;53.132;6.394;2022-08-01T08:31:49;20.40;99.90
52209;DHT22;38507;53.132;6.394;2022-08-01T08:34:16;20.30;99.90
52209;DHT22;38507;53.132;6.394;2022-08-01T08:36:42;20.40;99.90
52209;DHT22;38507;53.132;6.394;2022-08-01T08:39:07;20.50;99.90
52209;DHT22;38507;53.132;6.394;2022-08-01T08:41:33;20.60;99.90
52209;DHT22;38507;53.132;6.394;2022-08-01T08:44:07;20.80;99.90
52209;DHT22;38507;53.132;6.394;2022-08-01T08:46:34;21.10;99.90
52209;DHT22;38507;53.132;6.394;2022-08-01T08:49:08;21.10;99.90
52209;DHT22;38507;53.132;6.394;2022-08-01T08:51:41;21.40;99.90
52209;DHT22;38507;53.132;6.394;2022-08-01T08:54:11;21.30;99.90
52209;DHT22;38507;53.132;6.394;2022-08-01T08:56:38;21.50;99.90
52209;DHT22;38507;53.132;6.394;2022-08-01T08:59:04;21.60;99.90
52209;DHT22;38507;53.132;6.394;2022-08-01T09:01:31;21.60;99.90
52209;DHT22;38507;53.132;6.394;2022-08-01T09:03:59;21.60;99.90
52209;DHT22;38507;53.132;6.394;2022-08-01T09:06:24;21.40;99.90
52209;DHT22;38507;53.132;6.394;2022-08-01T09:08:50;21.50;99.90
52209;DHT22;38507;53.132;6.394;2022-08-01T09:11:19;21.50;99.90
52209;DHT22;38507;53.132;6.394;2022-08-01T09:16:29;21.70;99.90
52209;DHT22;38507;53.132;6.394;2022-08-01T09:19:16;21.60;99.90
52209;DHT22;38507;53.132;6.394;2022-08-01T09:22:00;21.60;99.90
52209;DHT22;38507;53.132;6.394;2022-08-01T09:24:28;21.60;99.90
52209;DHT22;38507;53.132;6.394;2022-08-01T09:26:54;21.30;99.90
52209;DHT22;38507;53.132;6.394;2022-08-01T09:29:29;21.20;99.90
52209;DHT22;38507;53.132;6.394;2022-08-01T09:31:55;21.50;99.90
52209;DHT22;38507;53.132;6.394;2022-08-01T09:34:30;21.50;99.90
52209;DHT22;38507;53.132;6.394;2022-08-01T09:37:00;21.50;99.90
52209;DHT22;38507;53.132;6.394;2022-08-01T09:39:31;21.50;99.90
52209;DHT22;38507;53.132;6.394;2022-08-01T09:42:00;21.80;99.90
52209;DHT22;38507;53.132;6.394;2022-08-01T09:44:41;22.10;99.90
52209;DHT22;38507;53.132;6.394;2022-08-01T09:47:07;22.10;99.90
52209;DHT22;38507;53.132;6.394;2022-08-01T09:49:37;22.10;99.90
52209;DHT22;38507;53.132;6.394;2022-08-01T09:52:21;22.00;99.90
52209;DHT22;38507;53.132;6.394;2022-08-01T09:54:55;22.10;99.90
52209;DHT22;38507;53.132;6.394;2022-08-01T09:57:24;22.20;99.90
52209;DHT22;38507;53.132;6.394;2022-08-01T09:59:55;22.10;99.90
52209;DHT22;38507;53.132;6.394;2022-08-01T10:02:34;22.20;99.90
52209;DHT22;38507;53.132;6.394;2022-08-01T10:05:02;22.50;99.90
52209;DHT22;38507;53.132;6.394;2022-08-01T10:07:29;22.50;99.90
52209;DHT22;38507;53.132;6.394;2022-08-01T10:09:54;22.20;99.90
52209;DHT22;38507;53.132;6.394;2022-08-01T10:12:22;22.00;99.90
52209;DHT22;38507;53.132;6.394;2022-08-01T10:14:49;22.00;99.90
52209;DHT22;38507;53.132;6.394;2022-08-01T10:17:17;22.30;99.90
52209;DHT22;38507;53.132;6.394;2022-08-01T10:19:43;22.40;99.90
52209;DHT22;38507;53.132;6.394;2022-08-01T10:22:12;22.40;99.90
52209;DHT22;38507;53.132;6.394;2022-08-01T10:24:45;22.60;99.90
52209;DHT22;38507;53.132;6.394;2022-08-01T10:27:14;22.70;99.90
52209;DHT22;38507;53.132;6.394;2022-08-01T10:29:57;22.90;99.90
52209;DHT22;38507;53.132;6.394;2022-08-01T10:32:26;22.70;99.90
52209;DHT22;38507;53.132;6.394;2022-08-01T10:34:52;22.50;99.90
52209;DHT22;38507;53.132;6.394;2022-08-01T10:37:18;22.80;99.90
52209;DHT22;38507;53.132;6.394;2022-08-01T10:39:44;22.90;99.90
52209;DHT22;38507;53.132;6.394;2022-08-01T10:42:11;23.10;99.90
52209;DHT22;38507;53.132;6.394;2022-08-01T10:44:38;23.00;99.90
52209;DHT22;38507;53.132;6.394;2022-08-01T10:47:10;23.10;99.90
52209;DHT22;38507;53.132;6.394;2022-08-01T10:49:53;23.10;99.90
52209;DHT22;38507;53.132;6.394;2022-08-01T10:52:21;23.10;99.90
52209;DHT22;38507;53.132;6.394;2022-08-01T10:54:47;23.10;99.90
52209;DHT22;38507;53.132;6.394;2022-08-01T10:57:13;23.30;99.90
52209;DHT22;38507;53.132;6.394;2022-08-01T10:59:50;23.30;99.90
52209;DHT22;38507;53.132;6.394;2022-08-01T11:02:34;23.20;99.90
52209;DHT22;38507;53.132;6.394;2022-08-01T11:05:20;23.30;99.90
52209;DHT22;38507;53.132;6.394;2022-08-01T11:07:51;23.40;99.90
52209;DHT22;38507;53.132;6.394;2022-08-01T11:13:04;23.70;99.90
52209;DHT22;38507;53.132;6.394;2022-08-01T11:15:34;23.70;99.90
52209;DHT22;38507;53.132;6.394;2022-08-01T11:18:28;23.70;99.90
52209;DHT22;38507;53.132;6.394;2022-08-01T11:20:58;23.80;99.90
52209;DHT22;38507;53.132;6.394;2022-08-01T11:23:26;23.60;99.90
52209;DHT22;38507;53.132;6.394;2022-08-01T11:28:20;23.70;99.90
52209;DHT22;38507;53.132;6.394;2022-08-01T11:33:19;23.50;99.90
52209;DHT22;38507;53.132;6.394;2022-08-01T11:38:44;23.80;99.90
52209;DHT22;38507;53.132;6.394;2022-08-01T11:44:01;23.80;99.90
52209;DHT22;38507;53.132;6.394;2022-08-01T11:46:49;23.70;98.90
52209;DHT22;38507;53.132;6.394;2022-08-01T11:52:12;23.90;99.30
52209;DHT22;38507;53.132;6.394;2022-08-01T11:57:41;23.80;99.90
52209;DHT22;38507;53.132;6.394;2022-08-01T12:00:18;23.50;98.80
52209;DHT22;38507;53.132;6.394;2022-08-01T12:05:52;23.80;99.80
52209;DHT22;38507;53.132;6.394;2022-08-01T12:08:53;23.80;99.00
52209;DHT22;38507;53.132;6.394;2022-08-01T12:11:20;24.00;98.30
52209;DHT22;38507;53.132;6.394;2022-08-01T12:13:49;24.10;99.50
52209;DHT22;38507;53.132;6.394;2022-08-01T12:16:26;24.20;99.50
52209;DHT22;38507;53.132;6.394;2022-08-01T12:18:57;24.30;98.70
52209;DHT22;38507;53.132;6.394;2022-08-01T12:24:06;24.20;98.60
52209;DHT22;38507;53.132;6.394;2022-08-01T12:26:41;24.50;99.10
52209;DHT22;38507;53.132;6.394;2022-08-01T12:29:07;24.60;98.60
52209;DHT22;38507;53.132;6.394;2022-08-01T12:31:35;24.50;97.90
52209;DHT22;38507;53.132;6.394;2022-08-01T12:34:27;24.60;99.00
52209;DHT22;38507;53.132;6.394;2022-08-01T12:36:57;24.90;97.70
52209;DHT22;38507;53.132;6.394;2022-08-01T12:39:32;24.90;98.20
52209;DHT22;38507;53.132;6.394;2022-08-01T12:41:58;24.80;97.70
52209;DHT22;38507;53.132;6.394;2022-08-01T12:44:25;24.60;97.40
52209;DHT22;38507;53.132;6.394;2022-08-01T12:46:52;24.70;97.50
52209;DHT22;38507;53.132;6.394;2022-08-01T12:49:24;24.60;97.00
52209;DHT22;38507;53.132;6.394;2022-08-01T12:51:50;24.80;97.50
52209;DHT22;38507;53.132;6.394;2022-08-01T12:54:16;24.70;97.30
52209;DHT22;38507;53.132;6.394;2022-08-01T12:56:42;24.80;97.60
52209;DHT22;38507;53.132;6.394;2022-08-01T12:59:25;25.10;97.40
52209;DHT22;38507;53.132;6.394;2022-08-01T13:01:55;25.20;95.90
52209;DHT22;38507;53.132;6.394;2022-08-01T13:04:22;25.00;96.90
52209;DHT22;38507;53.132;6.394;2022-08-01T13:06:54;24.90;96.50
52209;DHT22;38507;53.132;6.394;2022-08-01T13:09:20;25.00;96.90
52209;DHT22;38507;53.132;6.394;2022-08-01T13:11:49;25.10;97.30
52209;DHT22;38507;53.132;6.394;2022-08-01T13:14:28;25.00;96.80
52209;DHT22;38507;53.132;6.394;2022-08-01T13:16:54;25.10;95.60
52209;DHT22;38507;53.132;6.394;2022-08-01T13:19:19;25.20;96.50
52209;DHT22;38507;53.132;6.394;2022-08-01T13:21:56;25.20;96.60
52209;DHT22;38507;53.132;6.394;2022-08-01T13:24:30;25.30;95.80
52209;DHT22;38507;53.132;6.394;2022-08-01T13:29:49;25.20;95.40
52209;DHT22;38507;53.132;6.394;2022-08-01T13:32:20;25.30;95.90
52209;DHT22;38507;53.132;6.394;2022-08-01T13:34:46;25.30;95.40
52209;DHT22;38507;53.132;6.394;2022-08-01T13:37:11;25.40;95.50
52209;DHT22;38507;53.132;6.394;2022-08-01T13:39:43;25.30;95.20
52209;DHT22;38507;53.132;6.394;2022-08-01T13:42:13;25.40;94.90
52209;DHT22;38507;53.132;6.394;2022-08-01T13:44:43;25.30;94.30
52209;DHT22;38507;53.132;6.394;2022-08-01T13:47:12;25.50;95.00
52209;DHT22;38507;53.132;6.394;2022-08-01T13:49:37;25.30;94.10
52209;DHT22;38507;53.132;6.394;2022-08-01T13:52:10;25.60;94.30
52209;DHT22;38507;53.132;6.394;2022-08-01T13:54:36;25.60;94.40
52209;DHT22;38507;53.132;6.394;2022-08-01T13:57:05;25.50;94.20
52209;DHT22;38507;53.132;6.394;2022-08-01T13:59:33;25.50;94.00
52209;DHT22;38507;53.132;6.394;2022-08-01T14:01:59;25.70;94.40
52209;DHT22;38507;53.132;6.394;2022-08-01T14:04:25;25.90;94.70
52209;DHT22;38507;53.132;6.394;2022-08-01T14:06:51;26.00;94.10
52209;DHT22;38507;53.132;6.394;2022-08-01T14:09:16;25.80;94.10
52209;DHT22;38507;53.132;6.394;2022-08-01T14:11:44;25.70;93.60
52209;DHT22;38507;53.132;6.394;2022-08-01T14:14:10;26.00;94.00
52209;DHT22;38507;53.132;6.394;2022-08-01T14:16:36;26.00;94.20
52209;DHT22;38507;53.132;6.394;2022-08-01T14:19:03;26.00;94.10
52209;DHT22;38507;53.132;6.394;2022-08-01T14:21:28;25.90;94.20
52209;DHT22;38507;53.132;6.394;2022-08-01T14:23:54;25.90;93.20
52209;DHT22;38507;53.132;6.394;2022-08-01T14:26:20;25.60;92.90
52209;DHT22;38507;53.132;6.394;2022-08-01T14:28:45;25.40;92.40
52209;DHT22;38507;53.132;6.394;2022-08-01T14:31:11;25.60;92.70
52209;DHT22;38507;53.132;6.394;2022-08-01T14:33:36;25.40;93.20
52209;DHT22;38507;53.132;6.394;2022-08-01T14:36:02;25.40;93.40
52209;DHT22;38507;53.132;6.394;2022-08-01T14:38:28;25.60;92.50
52209;DHT22;38507;53.132;6.394;2022-08-01T14:40:54;25.10;93.50
52209;DHT22;38507;53.132;6.394;2022-08-01T14:43:20;25.50;93.60
52209;DHT22;38507;53.132;6.394;2022-08-01T14:45:46;25.80;93.40
52209;DHT22;38507;53.132;6.394;2022-08-01T14:48:16;25.80;93.60
52209;DHT22;38507;53.132;6.394;2022-08-01T14:50:42;25.80;93.10
52209;DHT22;38507;53.132;6.394;2022-08-01T14:53:08;26.00;93.30
52209;DHT22;38507;53.132;6.394;2022-08-01T14:55:33;26.20;92.40
52209;DHT22;38507;53.132;6.394;2022-08-01T14:57:59;26.10;92.60
52209;DHT22;38507;53.132;6.394;2022-08-01T15:00:25;26.00;92.40
52209;DHT22;38507;53.132;6.394;2022-08-01T15:02:50;25.70;91.90
52209;DHT22;38507;53.132;6.394;2022-08-01T15:05:16;25.90;92.80
52209;DHT22;38507;53.132;6.394;2022-08-01T15:07:41;26.00;93.00
52209;DHT22;38507;53.132;6.394;2022-08-01T15:10:07;26.00;92.80
52209;DHT22;38507;53.132;6.394;2022-08-01T15:12:34;26.10;92.90
52209;DHT22;38507;53.132;6.394;2022-08-01T15:15:00;26.10;93.00
52209;DHT22;38507;53.132;6.394;2022-08-01T15:17:30;26.00;92.20
52209;DHT22;38507;53.132;6.394;2022-08-01T15:20:02;26.20;92.40
52209;DHT22;38507;53.132;6.394;2022-08-01T15:22:28;26.20;92.60
52209;DHT22;38507;53.132;6.394;2022-08-01T15:24:55;26.20;92.30
52209;DHT22;38507;53.132;6.394;2022-08-01T15:27:22;26.20;92.50
52209;DHT22;38507;53.132;6.394;2022-08-01T15:29:48;26.20;92.40
52209;DHT22;38507;53.132;6.394;2022-08-01T15:32:14;26.20;91.10
52209;DHT22;38507;53.132;6.394;2022-08-01T15:34:41;26.20;92.50
52209;DHT22;38507;53.132;6.394;2022-08-01T15:37:08;26.30;91.90
52209;DHT22;38507;53.132;6.394;2022-08-01T15:39:34;26.20;91.50
52209;DHT22;38507;53.132;6.394;2022-08-01T15:42:08;26.20;91.60
52209;DHT22;38507;53.132;6.394;2022-08-01T15:44:34;26.10;91.50
52209;DHT22;38507;53.132;6.394;2022-08-01T15:47:02;26.20;91.80
52209;DHT22;38507;53.132;6.394;2022-08-01T15:49:27;26.10;91.50
52209;DHT22;38507;53.132;6.394;2022-08-01T15:51:53;25.90;91.70
52209;DHT22;38507;53.132;6.394;2022-08-01T15:54:19;26.00;91.60
52209;DHT22;38507;53.132;6.394;2022-08-01T15:56:45;25.90;91.20
52209;DHT22;38507;53.132;6.394;2022-08-01T15:59:11;25.80;90.90
52209;DHT22;38507;53.132;6.394;2022-08-01T16:01:37;25.70;90.70
52209;DHT22;38507;53.132;6.394;2022-08-01T16:04:03;25.50;90.60
52209;DHT22;38507;53.132;6.394;2022-08-01T16:06:30;25.50;91.10
52209;DHT22;38507;53.132;6.394;2022-08-01T16:08:56;25.80;91.50
52209;DHT22;38507;53.132;6.394;2022-08-01T16:11:22;25.90;91.50
52209;DHT22;38507;53.132;6.394;2022-08-01T16:13:49;25.60;91.20
52209;DHT22;38507;53.132;6.394;2022-08-01T16:16:15;25.70;91.40